sensor_id;sensor_type;location;lat;lon;timestamp;P1;durP1;ratioP1;P2;durP2;ratioP2
51214;SDS011;63849;47.546;19.254;2023-06-05T00:01:07;4.20;;;3.00;;
51214;SDS011;63849;47.546;19.254;2023-06-05T00:03:34;4.13;;;2.63;;
51214;SDS011;63849;47.546;19.254;2023-06-05T00:06:02;4.43;;;2.85;;
51214;SDS011;63849;47.546;19.254;2023-06-05T00:08:29;3.28;;;2.50;;
51214;SDS011;63849;47.546;19.254;2023-06-05T00:10:54;7.07;;;2.65;;
51214;SDS011;63849;47.546;19.254;2023-06-05T00:13:21;4.22;;;2.75;;
51214;SDS011;63849;47.546;19.254;2023-06-05T00:15:49;4.22;;;2.63;;
51214;SDS011;63849;47.546;19.254;2023-06-05T00:18:16;3.25;;;2.22;;
51214;SDS011;63849;47.546;19.254;2023-06-05T00:20:42;4.03;;;2.60;;
51214;SDS011;63849;47.546;19.254;2023-06-05T00:23:08;3.80;;;2.85;;
51214;SDS011;63849;47.546;19.254;2023-06-05T00:25:36;2.95;;;2.58;;
51214;SDS011;63849;47.546;19.254;2023-06-05T00:28:02;3.03;;;2.50;;
51214;SDS011;63849;47.546;19.254;2023-06-05T00:30:28;4.20;;;2.60;;
51214;SDS011;63849;47.546;19.254;2023-06-05T00:32:55;3.08;;;2.75;;
51214;SDS011;63849;47.546;19.254;2023-06-05T00:35:21;4.50;;;2.80;;
51214;SDS011;63849;47.546;19.254;2023-06-05T00:37:47;5.85;;;2.67;;
51214;SDS011;63849;47.546;19.254;2023-06-05T00:40:13;2.50;;;2.30;;
51214;SDS011;63849;47.546;19.254;2023-06-05T00:42:39;3.67;;;2.67;;
51214;SDS011;63849;47.546;19.254;2023-06-05T00:45:05;3.35;;;2.65;;
51214;SDS011;63849;47.546;19.254;2023-06-05T00:47:32;3.95;;;3.03;;
51214;SDS011;63849;47.546;19.254;2023-06-05T00:49:58;3.45;;;2.72;;
51214;SDS011;63849;47.546;19.254;2023-06-05T00:52:25;5.32;;;3.20;;
51214;SDS011;63849;47.546;19.254;2023-06-05T00:54:52;3.63;;;2.72;;
51214;SDS011;63849;47.546;19.254;2023-06-05T00:57:19;3.10;;;2.80;;
51214;SDS011;63849;47.546;19.254;2023-06-05T00:59:45;3.65;;;2.75;;
51214;SDS011;63849;47.546;19.254;2023-06-05T01:02:14;3.72;;;2.45;;
51214;SDS011;63849;47.546;19.254;2023-06-05T01:04:41;8.45;;;3.10;;
51214;SDS011;63849;47.546;19.254;2023-06-05T01:07:09;6.15;;;3.20;;
51214;SDS011;63849;47.546;19.254;2023-06-05T01:09:36;4.82;;;2.70;;
51214;SDS011;63849;47.546;19.254;2023-06-05T01:12:05;11.18;;;2.95;;
51214;SDS011;63849;47.546;19.254;2023-06-05T01:14:45;6.22;;;2.70;;
51214;SDS011;63849;47.546;19.254;2023-06-05T01:17:14;8.45;;;2.92;;
51214;SDS011;63849;47.546;19.254;2023-06-05T01:19:44;4.93;;;2.70;;
51214;SDS011;63849;47.546;19.254;2023-06-05T01:22:10;3.97;;;2.55;;
51214;SDS011;63849;47.546;19.254;2023-06-05T01:24:37;4.05;;;2.75;;
51214;SDS011;63849;47.546;19.254;2023-06-05T01:27:11;5.55;;;2.70;;
51214;SDS011;63849;47.546;19.254;2023-06-05T01:35:06;6.57;;;2.88;;
51214;SDS011;63849;47.546;19.254;2023-06-05T01:37:35;3.85;;;2.72;;
51214;SDS011;63849;47.546;19.254;2023-06-05T01:40:15;5.78;;;2.88;;
51214;SDS011;63849;47.546;19.254;2023-06-05T01:42:43;4.30;;;2.97;;
51214;SDS011;63849;47.546;19.254;2023-06-05T01:45:10;4.40;;;2.85;;
51214;SDS011;63849;47.546;19.254;2023-06-05T01:47:37;5.20;;;2.78;;
51214;SDS011;63849;47.546;19.254;2023-06-05T01:50:05;4.80;;;3.00;;
51214;SDS011;63849;47.546;19.254;2023-06-05T01:52:33;5.72;;;3.03;;
51214;SDS011;63849;47.546;19.254;2023-06-05T01:55:00;5.18;;;3.28;;
51214;SDS011;63849;47.546;19.254;2023-06-05T01:57:27;4.07;;;3.00;;
51214;SDS011;63849;47.546;19.254;2023-06-05T01:59:54;3.15;;;2.70;;
51214;SDS011;63849;47.546;19.254;2023-06-05T02:02:20;3.75;;;2.65;;
51214;SDS011;63849;47.546;19.254;2023-06-05T02:04:47;4.30;;;2.83;;
51214;SDS011;63849;47.546;19.254;2023-06-05T02:07:13;2.80;;;2.50;;
51214;SDS011;63849;47.546;19.254;2023-06-05T02:09:40;2.97;;;2.55;;
51214;SDS011;63849;47.546;19.254;2023-06-05T02:12:06;7.28;;;3.42;;
51214;SDS011;63849;47.546;19.254;2023-06-05T02:14:32;5.55;;;3.00;;
51214;SDS011;63849;47.546;19.254;2023-06-05T02:17:02;5.47;;;3.03;;
51214;SDS011;63849;47.546;19.254;2023-06-05T02:19:32;3.42;;;2.63;;
51214;SDS011;63849;47.546;19.254;2023-06-05T02:21:58;5.35;;;2.90;;
51214;SDS011;63849;47.546;19.254;2023-06-05T02:24:24;3.90;;;3.03;;
51214;SDS011;63849;47.546;19.254;2023-06-05T02:26:51;4.63;;;2.90;;
51214;SDS011;63849;47.546;19.254;2023-06-05T02:29:17;5.00;;;3.28;;
51214;SDS011;63849;47.546;19.254;2023-06-05T02:31:43;3.33;;;2.50;;
51214;SDS011;63849;47.546;19.254;2023-06-05T02:34:09;4.45;;;2.83;;
51214;SDS011;63849;47.546;19.254;2023-06-05T02:36:35;5.20;;;3.05;;
51214;SDS011;63849;47.546;19.254;2023-06-05T02:39:01;4.35;;;2.55;;
51214;SDS011;63849;47.546;19.254;2023-06-05T02:41:29;6.97;;;2.97;;
51214;SDS011;63849;47.546;19.254;2023-06-05T02:43:55;4.65;;;3.15;;
51214;SDS011;63849;47.546;19.254;2023-06-05T02:46:21;4.45;;;2.95;;
51214;SDS011;63849;47.546;19.254;2023-06-05T02:48:49;3.20;;;2.80;;
51214;SDS011;63849;47.546;19.254;2023-06-05T02:51:16;3.90;;;2.60;;
51214;SDS011;63849;47.546;19.254;2023-06-05T02:53:42;6.97;;;3.00;;
51214;SDS011;63849;47.546;19.254;2023-06-05T02:56:07;4.85;;;3.15;;
51214;SDS011;63849;47.546;19.254;2023-06-05T02:58:33;5.43;;;2.85;;
51214;SDS011;63849;47.546;19.254;2023-06-05T03:01:00;5.53;;;3.38;;
51214;SDS011;63849;47.546;19.254;2023-06-05T03:03:30;4.45;;;2.90;;
51214;SDS011;63849;47.546;19.254;2023-06-05T03:06:00;3.20;;;2.90;;
51214;SDS011;63849;47.546;19.254;2023-06-05T03:08:30;4.20;;;2.90;;
51214;SDS011;63849;47.546;19.254;2023-06-05T03:10:57;3.30;;;2.28;;
51214;SDS011;63849;47.546;19.254;2023-06-05T03:13:24;6.68;;;2.85;;
51214;SDS011;63849;47.546;19.254;2023-06-05T03:15:50;3.58;;;3.15;;
51214;SDS011;63849;47.546;19.254;2023-06-05T03:18:21;6.30;;;3.25;;
51214;SDS011;63849;47.546;19.254;2023-06-05T03:20:49;4.68;;;3.15;;
51214;SDS011;63849;47.546;19.254;2023-06-05T03:23:18;6.03;;;3.00;;
51214;SDS011;63849;47.546;19.254;2023-06-05T03:25:44;4.15;;;3.10;;
51214;SDS011;63849;47.546;19.254;2023-06-05T03:28:11;7.35;;;3.35;;
51214;SDS011;63849;47.546;19.254;2023-06-05T03:30:37;3.75;;;2.95;;
51214;SDS011;63849;47.546;19.254;2023-06-05T03:33:04;4.70;;;3.50;;
51214;SDS011;63849;47.546;19.254;2023-06-05T03:35:30;3.75;;;2.97;;
51214;SDS011;63849;47.546;19.254;2023-06-05T03:37:57;5.03;;;3.35;;
51214;SDS011;63849;47.546;19.254;2023-06-05T03:40:24;3.38;;;2.95;;
51214;SDS011;63849;47.546;19.254;2023-06-05T03:42:50;6.45;;;3.40;;
51214;SDS011;63849;47.546;19.254;2023-06-05T03:45:16;6.35;;;3.17;;
51214;SDS011;63849;47.546;19.254;2023-06-05T03:47:43;4.25;;;3.10;;
51214;SDS011;63849;47.546;19.254;2023-06-05T03:50:11;4.40;;;2.90;;
51214;SDS011;63849;47.546;19.254;2023-06-05T03:52:37;3.72;;;2.92;;
51214;SDS011;63849;47.546;19.254;2023-06-05T03:55:05;3.35;;;2.90;;
51214;SDS011;63849;47.546;19.254;2023-06-05T03:57:33;6.10;;;3.50;;
51214;SDS011;63849;47.546;19.254;2023-06-05T03:59:59;4.20;;;2.88;;
51214;SDS011;63849;47.546;19.254;2023-06-05T04:02:25;4.00;;;2.90;;
51214;SDS011;63849;47.546;19.254;2023-06-05T04:04:51;4.30;;;2.78;;
51214;SDS011;63849;47.546;19.254;2023-06-05T04:07:17;5.00;;;3.42;;
51214;SDS011;63849;47.546;19.254;2023-06-05T04:09:43;5.22;;;3.67;;
51214;SDS011;63849;47.546;19.254;2023-06-05T04:12:09;4.47;;;3.40;;
51214;SDS011;63849;47.546;19.254;2023-06-05T04:14:35;5.40;;;3.25;;
51214;SDS011;63849;47.546;19.254;2023-06-05T04:17:02;3.70;;;3.22;;
51214;SDS011;63849;47.546;19.254;2023-06-05T04:19:28;5.55;;;3.28;;
51214;SDS011;63849;47.546;19.254;2023-06-05T04:21:54;5.80;;;3.33;;
51214;SDS011;63849;47.546;19.254;2023-06-05T04:24:19;5.97;;;3.50;;
51214;SDS011;63849;47.546;19.254;2023-06-05T04:26:47;5.38;;;2.90;;
51214;SDS011;63849;47.546;19.254;2023-06-05T04:29:13;5.32;;;2.83;;
51214;SDS011;63849;47.546;19.254;2023-06-05T04:31:44;5.53;;;3.45;;
51214;SDS011;63849;47.546;19.254;2023-06-05T04:34:11;4.50;;;2.72;;
51214;SDS011;63849;47.546;19.254;2023-06-05T04:36:40;5.50;;;2.90;;
51214;SDS011;63849;47.546;19.254;2023-06-05T04:39:06;4.28;;;3.30;;
51214;SDS011;63849;47.546;19.254;2023-06-05T04:41:43;3.53;;;3.22;;
51214;SDS011;63849;47.546;19.254;2023-06-05T04:44:12;5.78;;;3.15;;
51214;SDS011;63849;47.546;19.254;2023-06-05T04:46:43;3.58;;;3.03;;
51214;SDS011;63849;47.546;19.254;2023-06-05T04:49:10;4.35;;;3.35;;
51214;SDS011;63849;47.546;19.254;2023-06-05T04:51:37;5.03;;;3.35;;
51214;SDS011;63849;47.546;19.254;2023-06-05T04:54:03;4.40;;;3.30;;
51214;SDS011;63849;47.546;19.254;2023-06-05T04:56:30;5.75;;;3.70;;
51214;SDS011;63849;47.546;19.254;2023-06-05T04:59:02;5.88;;;3.55;;
51214;SDS011;63849;47.546;19.254;2023-06-05T05:01:29;4.65;;;3.60;;
51214;SDS011;63849;47.546;19.254;2023-06-05T05:03:55;6.15;;;3.15;;
51214;SDS011;63849;47.546;19.254;2023-06-05T05:06:22;4.40;;;3.50;;
51214;SDS011;63849;47.546;19.254;2023-06-05T05:08:48;4.53;;;3.90;;
51214;SDS011;63849;47.546;19.254;2023-06-05T05:11:14;6.60;;;3.70;;
51214;SDS011;63849;47.546;19.254;2023-06-05T05:13:41;8.43;;;3.17;;
51214;SDS011;63849;47.546;19.254;2023-06-05T05:16:07;4.25;;;3.40;;
51214;SDS011;63849;47.546;19.254;2023-06-05T05:18:34;7.55;;;3.55;;
51214;SDS011;63849;47.546;19.254;2023-06-05T05:21:02;4.57;;;3.92;;
51214;SDS011;63849;47.546;19.254;2023-06-05T05:23:31;5.03;;;3.67;;
51214;SDS011;63849;47.546;19.254;2023-06-05T05:25:57;7.15;;;3.42;;
51214;SDS011;63849;47.546;19.254;2023-06-05T05:28:25;5.07;;;3.30;;
51214;SDS011;63849;47.546;19.254;2023-06-05T05:30:54;6.75;;;3.70;;
51214;SDS011;63849;47.546;19.254;2023-06-05T05:33:23;7.57;;;3.58;;
51214;SDS011;63849;47.546;19.254;2023-06-05T05:35:49;5.60;;;3.38;;
51214;SDS011;63849;47.546;19.254;2023-06-05T05:38:16;7.57;;;3.45;;
51214;SDS011;63849;47.546;19.254;2023-06-05T05:40:42;4.50;;;3.92;;
51214;SDS011;63849;47.546;19.254;2023-06-05T05:43:08;5.32;;;3.22;;
51214;SDS011;63849;47.546;19.254;2023-06-05T05:45:35;4.72;;;3.22;;
51214;SDS011;63849;47.546;19.254;2023-06-05T05:48:04;4.30;;;3.08;;
51214;SDS011;63849;47.546;19.254;2023-06-05T05:50:31;6.40;;;3.78;;
51214;SDS011;63849;47.546;19.254;2023-06-05T05:52:56;6.20;;;2.83;;
51214;SDS011;63849;47.546;19.254;2023-06-05T05:55:23;6.45;;;3.40;;
51214;SDS011;63849;47.546;19.254;2023-06-05T05:57:49;7.53;;;3.70;;
51214;SDS011;63849;47.546;19.254;2023-06-05T06:00:15;4.05;;;3.13;;
51214;SDS011;63849;47.546;19.254;2023-06-05T06:02:42;3.85;;;3.03;;
51214;SDS011;63849;47.546;19.254;2023-06-05T06:05:08;4.25;;;3.85;;
51214;SDS011;63849;47.546;19.254;2023-06-05T06:07:37;3.75;;;3.10;;
51214;SDS011;63849;47.546;19.254;2023-06-05T06:10:05;4.88;;;3.30;;
51214;SDS011;63849;47.546;19.254;2023-06-05T06:12:32;7.22;;;4.03;;
51214;SDS011;63849;47.546;19.254;2023-06-05T06:14:58;4.68;;;3.50;;
51214;SDS011;63849;47.546;19.254;2023-06-05T06:17:24;4.18;;;3.40;;
51214;SDS011;63849;47.546;19.254;2023-06-05T06:19:52;6.90;;;4.28;;
51214;SDS011;63849;47.546;19.254;2023-06-05T06:22:18;5.60;;;3.15;;
51214;SDS011;63849;47.546;19.254;2023-06-05T06:24:44;3.97;;;3.15;;
51214;SDS011;63849;47.546;19.254;2023-06-05T06:27:10;4.15;;;3.05;;
51214;SDS011;63849;47.546;19.254;2023-06-05T06:29:50;5.18;;;3.65;;
51214;SDS011;63849;47.546;19.254;2023-06-05T06:32:20;6.25;;;3.55;;
51214;SDS011;63849;47.546;19.254;2023-06-05T06:34:47;6.20;;;3.40;;
51214;SDS011;63849;47.546;19.254;2023-06-05T06:37:13;4.65;;;3.30;;
51214;SDS011;63849;47.546;19.254;2023-06-05T06:39:44;3.42;;;3.13;;
51214;SDS011;63849;47.546;19.254;2023-06-05T06:42:11;4.53;;;3.25;;
51214;SDS011;63849;47.546;19.254;2023-06-05T06:44:37;4.53;;;3.10;;
51214;SDS011;63849;47.546;19.254;2023-06-05T06:47:04;6.30;;;3.40;;
51214;SDS011;63849;47.546;19.254;2023-06-05T06:49:34;4.53;;;3.55;;
51214;SDS011;63849;47.546;19.254;2023-06-05T06:52:04;5.18;;;3.15;;
51214;SDS011;63849;47.546;19.254;2023-06-05T06:54:33;5.25;;;3.80;;
51214;SDS011;63849;47.546;19.254;2023-06-05T06:56:59;2.97;;;2.75;;
51214;SDS011;63849;47.546;19.254;2023-06-05T06:59:25;3.38;;;3.08;;
51214;SDS011;63849;47.546;19.254;2023-06-05T07:02:08;6.00;;;3.38;;
51214;SDS011;63849;47.546;19.254;2023-06-05T07:04:39;5.60;;;3.83;;
51214;SDS011;63849;47.546;19.254;2023-06-05T07:07:10;4.80;;;3.30;;
51214;SDS011;63849;47.546;19.254;2023-06-05T07:09:38;4.80;;;3.88;;
51214;SDS011;63849;47.546;19.254;2023-06-05T07:12:04;4.65;;;3.75;;
51214;SDS011;63849;47.546;19.254;2023-06-05T07:14:33;5.90;;;3.42;;
51214;SDS011;63849;47.546;19.254;2023-06-05T07:17:00;4.00;;;3.45;;
51214;SDS011;63849;47.546;19.254;2023-06-05T07:19:30;5.22;;;3.25;;
51214;SDS011;63849;47.546;19.254;2023-06-05T07:21:56;5.72;;;4.07;;
51214;SDS011;63849;47.546;19.254;2023-06-05T07:24:23;7.13;;;3.70;;
51214;SDS011;63849;47.546;19.254;2023-06-05T07:26:51;3.97;;;3.58;;
51214;SDS011;63849;47.546;19.254;2023-06-05T07:29:18;6.85;;;3.72;;
51214;SDS011;63849;47.546;19.254;2023-06-05T07:31:46;6.25;;;4.20;;
51214;SDS011;63849;47.546;19.254;2023-06-05T07:34:13;4.70;;;3.70;;
51214;SDS011;63849;47.546;19.254;2023-06-05T07:36:39;4.18;;;3.42;;
51214;SDS011;63849;47.546;19.254;2023-06-05T07:39:06;4.82;;;3.20;;
51214;SDS011;63849;47.546;19.254;2023-06-05T07:41:33;5.40;;;3.72;;
51214;SDS011;63849;47.546;19.254;2023-06-05T07:43:59;4.28;;;3.53;;
51214;SDS011;63849;47.546;19.254;2023-06-05T07:46:25;7.15;;;3.63;;
51214;SDS011;63849;47.546;19.254;2023-06-05T07:48:51;4.43;;;3.40;;
51214;SDS011;63849;47.546;19.254;2023-06-05T07:51:19;4.72;;;3.67;;
51214;SDS011;63849;47.546;19.254;2023-06-05T07:53:45;7.55;;;3.60;;
51214;SDS011;63849;47.546;19.254;2023-06-05T07:56:11;6.13;;;3.70;;
51214;SDS011;63849;47.546;19.254;2023-06-05T07:58:37;6.25;;;3.63;;
51214;SDS011;63849;47.546;19.254;2023-06-05T08:01:04;7.20;;;4.03;;
51214;SDS011;63849;47.546;19.254;2023-06-05T08:03:32;6.65;;;3.78;;
51214;SDS011;63849;47.546;19.254;2023-06-05T08:05:58;5.47;;;3.70;;
51214;SDS011;63849;47.546;19.254;2023-06-05T08:08:24;5.75;;;4.03;;
51214;SDS011;63849;47.546;19.254;2023-06-05T08:10:50;5.68;;;4.03;;
51214;SDS011;63849;47.546;19.254;2023-06-05T08:13:16;6.72;;;3.72;;
51214;SDS011;63849;47.546;19.254;2023-06-05T08:15:42;10.32;;;3.95;;
51214;SDS011;63849;47.546;19.254;2023-06-05T08:18:08;5.78;;;4.43;;
51214;SDS011;63849;47.546;19.254;2023-06-05T08:20:34;5.93;;;4.13;;
51214;SDS011;63849;47.546;19.254;2023-06-05T08:23:00;6.25;;;3.42;;
51214;SDS011;63849;47.546;19.254;2023-06-05T08:25:26;5.45;;;3.40;;
51214;SDS011;63849;47.546;19.254;2023-06-05T08:27:53;7.22;;;4.22;;
51214;SDS011;63849;47.546;19.254;2023-06-05T08:30:19;5.10;;;3.80;;
51214;SDS011;63849;47.546;19.254;2023-06-05T08:32:46;6.63;;;3.97;;
51214;SDS011;63849;47.546;19.254;2023-06-05T08:35:11;4.28;;;3.88;;
51214;SDS011;63849;47.546;19.254;2023-06-05T08:37:37;8.43;;;4.25;;
51214;SDS011;63849;47.546;19.254;2023-06-05T08:40:04;9.40;;;4.18;;
51214;SDS011;63849;47.546;19.254;2023-06-05T08:42:38;8.90;;;3.83;;
51214;SDS011;63849;47.546;19.254;2023-06-05T08:45:07;6.43;;;3.90;;
51214;SDS011;63849;47.546;19.254;2023-06-05T08:47:38;5.10;;;4.15;;
51214;SDS011;63849;47.546;19.254;2023-06-05T08:50:06;4.90;;;3.15;;
51214;SDS011;63849;47.546;19.254;2023-06-05T08:52:33;4.72;;;3.85;;
51214;SDS011;63849;47.546;19.254;2023-06-05T08:55:04;5.82;;;3.70;;
51214;SDS011;63849;47.546;19.254;2023-06-05T08:57:34;4.72;;;3.63;;
51214;SDS011;63849;47.546;19.254;2023-06-05T09:00:03;4.60;;;3.70;;
51214;SDS011;63849;47.546;19.254;2023-06-05T09:02:33;6.50;;;3.78;;
51214;SDS011;63849;47.546;19.254;2023-06-05T09:04:59;4.88;;;3.67;;
51214;SDS011;63849;47.546;19.254;2023-06-05T09:07:27;6.40;;;3.70;;
51214;SDS011;63849;47.546;19.254;2023-06-05T09:09:54;7.32;;;4.18;;
51214;SDS011;63849;47.546;19.254;2023-06-05T09:12:20;6.35;;;4.07;;
51214;SDS011;63849;47.546;19.254;2023-06-05T09:14:49;5.47;;;3.90;;
51214;SDS011;63849;47.546;19.254;2023-06-05T09:17:15;5.90;;;3.42;;
51214;SDS011;63849;47.546;19.254;2023-06-05T09:19:42;5.55;;;4.00;;
51214;SDS011;63849;47.546;19.254;2023-06-05T09:22:10;7.68;;;3.70;;
51214;SDS011;63849;47.546;19.254;2023-06-05T09:24:38;5.70;;;4.07;;
51214;SDS011;63849;47.546;19.254;2023-06-05T09:27:08;6.47;;;4.35;;
51214;SDS011;63849;47.546;19.254;2023-06-05T09:29:43;5.97;;;3.85;;
51214;SDS011;63849;47.546;19.254;2023-06-05T09:34:47;6.75;;;3.70;;
51214;SDS011;63849;47.546;19.254;2023-06-05T09:37:32;5.53;;;3.78;;
51214;SDS011;63849;47.546;19.254;2023-06-05T09:40:00;5.15;;;3.45;;
51214;SDS011;63849;47.546;19.254;2023-06-05T09:42:33;5.38;;;3.17;;
51214;SDS011;63849;47.546;19.254;2023-06-05T09:45:00;4.90;;;3.97;;
51214;SDS011;63849;47.546;19.254;2023-06-05T09:47:30;6.03;;;4.03;;
51214;SDS011;63849;47.546;19.254;2023-06-05T09:49:55;4.60;;;3.42;;
51214;SDS011;63849;47.546;19.254;2023-06-05T09:52:22;6.55;;;3.22;;
51214;SDS011;63849;47.546;19.254;2023-06-05T09:54:47;7.75;;;3.50;;
51214;SDS011;63849;47.546;19.254;2023-06-05T09:57:14;4.30;;;3.50;;
51214;SDS011;63849;47.546;19.254;2023-06-05T09:59:53;3.20;;;2.88;;
51214;SDS011;63849;47.546;19.254;2023-06-05T10:02:21;4.63;;;3.25;;
51214;SDS011;63849;47.546;19.254;2023-06-05T10:05:08;4.07;;;3.10;;
51214;SDS011;63849;47.546;19.254;2023-06-05T10:07:36;4.10;;;3.67;;
51214;SDS011;63849;47.546;19.254;2023-06-05T10:10:04;6.75;;;3.53;;
51214;SDS011;63849;47.546;19.254;2023-06-05T10:12:34;6.30;;;3.47;;
51214;SDS011;63849;47.546;19.254;2023-06-05T10:15:00;3.50;;;3.20;;
51214;SDS011;63849;47.546;19.254;2023-06-05T10:17:27;5.63;;;3.55;;
51214;SDS011;63849;47.546;19.254;2023-06-05T10:19:53;5.95;;;3.10;;
51214;SDS011;63849;47.546;19.254;2023-06-05T10:22:20;7.25;;;3.03;;
51214;SDS011;63849;47.546;19.254;2023-06-05T10:24:50;4.13;;;2.80;;
51214;SDS011;63849;47.546;19.254;2023-06-05T10:30:29;6.57;;;3.42;;
51214;SDS011;63849;47.546;19.254;2023-06-05T10:38:26;4.40;;;3.22;;
51214;SDS011;63849;47.546;19.254;2023-06-05T10:40:56;4.82;;;2.97;;
51214;SDS011;63849;47.546;19.254;2023-06-05T10:43:35;5.72;;;3.00;;
51214;SDS011;63849;47.546;19.254;2023-06-05T10:51:45;7.05;;;2.83;;
51214;SDS011;63849;47.546;19.254;2023-06-05T10:54:13;7.78;;;3.30;;
51214;SDS011;63849;47.546;19.254;2023-06-05T10:56:55;4.25;;;3.25;;
51214;SDS011;63849;47.546;19.254;2023-06-05T10:59:32;3.45;;;3.10;;
51214;SDS011;63849;47.546;19.254;2023-06-05T11:12:27;4.47;;;3.10;;
51214;SDS011;63849;47.546;19.254;2023-06-05T11:15:02;5.15;;;3.25;;
51214;SDS011;63849;47.546;19.254;2023-06-05T11:17:30;3.03;;;2.78;;
51214;SDS011;63849;47.546;19.254;2023-06-05T11:27:50;3.45;;;2.60;;
51214;SDS011;63849;47.546;19.254;2023-06-05T11:30:22;3.78;;;3.20;;
51214;SDS011;63849;47.546;19.254;2023-06-05T11:32:52;3.60;;;3.05;;
51214;SDS011;63849;47.546;19.254;2023-06-05T11:35:25;4.35;;;2.72;;
51214;SDS011;63849;47.546;19.254;2023-06-05T11:38:12;4.15;;;2.83;;
51214;SDS011;63849;47.546;19.254;2023-06-05T11:40:47;5.90;;;2.65;;
51214;SDS011;63849;47.546;19.254;2023-06-05T11:43:14;5.75;;;3.03;;
51214;SDS011;63849;47.546;19.254;2023-06-05T11:45:42;4.45;;;2.67;;
51214;SDS011;63849;47.546;19.254;2023-06-05T11:48:16;2.95;;;2.47;;
51214;SDS011;63849;47.546;19.254;2023-06-05T11:50:58;3.97;;;2.97;;
51214;SDS011;63849;47.546;19.254;2023-06-05T11:53:25;4.85;;;3.05;;
51214;SDS011;63849;47.546;19.254;2023-06-05T11:55:52;6.88;;;2.88;;
51214;SDS011;63849;47.546;19.254;2023-06-05T11:58:20;4.00;;;2.58;;
51214;SDS011;63849;47.546;19.254;2023-06-05T12:00:47;4.68;;;2.70;;
51214;SDS011;63849;47.546;19.254;2023-06-05T12:03:19;5.55;;;2.88;;
51214;SDS011;63849;47.546;19.254;2023-06-05T12:05:46;4.10;;;3.10;;
51214;SDS011;63849;47.546;19.254;2023-06-05T12:08:23;3.50;;;2.88;;
51214;SDS011;63849;47.546;19.254;2023-06-05T12:10:58;9.15;;;2.78;;
51214;SDS011;63849;47.546;19.254;2023-06-05T12:16:11;3.70;;;2.78;;
51214;SDS011;63849;47.546;19.254;2023-06-05T12:18:37;4.32;;;3.08;;
51214;SDS011;63849;47.546;19.254;2023-06-05T12:21:03;3.28;;;2.90;;
51214;SDS011;63849;47.546;19.254;2023-06-05T12:23:31;5.93;;;3.13;;
51214;SDS011;63849;47.546;19.254;2023-06-05T12:26:01;5.40;;;2.97;;
51214;SDS011;63849;47.546;19.254;2023-06-05T12:28:29;4.97;;;2.88;;
51214;SDS011;63849;47.546;19.254;2023-06-05T12:30:55;5.00;;;3.10;;
51214;SDS011;63849;47.546;19.254;2023-06-05T12:33:24;3.05;;;2.40;;
51214;SDS011;63849;47.546;19.254;2023-06-05T12:36:04;4.10;;;3.00;;
51214;SDS011;63849;47.546;19.254;2023-06-05T12:38:37;3.70;;;2.97;;
51214;SDS011;63849;47.546;19.254;2023-06-05T12:41:05;4.13;;;3.00;;
51214;SDS011;63849;47.546;19.254;2023-06-05T12:43:32;7.68;;;2.58;;
51214;SDS011;63849;47.546;19.254;2023-06-05T12:45:58;3.63;;;2.67;;
51214;SDS011;63849;47.546;19.254;2023-06-05T12:48:24;3.65;;;2.90;;
51214;SDS011;63849;47.546;19.254;2023-06-05T12:50:50;6.88;;;3.22;;
51214;SDS011;63849;47.546;19.254;2023-06-05T12:53:17;3.53;;;3.17;;
51214;SDS011;63849;47.546;19.254;2023-06-05T12:55:43;3.53;;;2.45;;
51214;SDS011;63849;47.546;19.254;2023-06-05T12:58:09;3.45;;;2.90;;
51214;SDS011;63849;47.546;19.254;2023-06-05T13:00:36;3.40;;;2.95;;
51214;SDS011;63849;47.546;19.254;2023-06-05T13:03:03;4.35;;;3.25;;
51214;SDS011;63849;47.546;19.254;2023-06-05T13:05:32;3.05;;;2.75;;
51214;SDS011;63849;47.546;19.254;2023-06-05T13:07:58;4.85;;;2.90;;
51214;SDS011;63849;47.546;19.254;2023-06-05T13:10:24;3.25;;;2.95;;
51214;SDS011;63849;47.546;19.254;2023-06-05T13:12:50;3.25;;;2.95;;
51214;SDS011;63849;47.546;19.254;2023-06-05T13:15:16;3.95;;;2.75;;
51214;SDS011;63849;47.546;19.254;2023-06-05T13:17:44;6.15;;;3.05;;
51214;SDS011;63849;47.546;19.254;2023-06-05T13:20:11;6.97;;;3.20;;
51214;SDS011;63849;47.546;19.254;2023-06-05T13:22:43;4.40;;;3.15;;
51214;SDS011;63849;47.546;19.254;2023-06-05T13:25:09;4.68;;;2.78;;
51214;SDS011;63849;47.546;19.254;2023-06-05T13:27:35;5.78;;;2.90;;
51214;SDS011;63849;47.546;19.254;2023-06-05T13:30:01;3.65;;;2.53;;
51214;SDS011;63849;47.546;19.254;2023-06-05T13:32:28;2.95;;;2.35;;
51214;SDS011;63849;47.546;19.254;2023-06-05T13:34:59;3.65;;;3.08;;
51214;SDS011;63849;47.546;19.254;2023-06-05T13:37:25;6.03;;;2.67;;
51214;SDS011;63849;47.546;19.254;2023-06-05T13:39:51;4.32;;;2.75;;
51214;SDS011;63849;47.546;19.254;2023-06-05T13:42:17;3.00;;;2.70;;
51214;SDS011;63849;47.546;19.254;2023-06-05T13:44:43;5.53;;;3.05;;
51214;SDS011;63849;47.546;19.254;2023-06-05T13:47:12;5.15;;;2.33;;
51214;SDS011;63849;47.546;19.254;2023-06-05T13:49:41;3.10;;;2.55;;
51214;SDS011;63849;47.546;19.254;2023-06-05T13:52:07;4.68;;;2.85;;
51214;SDS011;63849;47.546;19.254;2023-06-05T13:54:35;5.68;;;2.70;;
51214;SDS011;63849;47.546;19.254;2023-06-05T13:57:01;3.83;;;2.97;;
51214;SDS011;63849;47.546;19.254;2023-06-05T13:59:30;3.95;;;2.35;;
51214;SDS011;63849;47.546;19.254;2023-06-05T14:01:56;3.45;;;2.65;;
51214;SDS011;63849;47.546;19.254;2023-06-05T14:04:23;4.40;;;2.80;;
51214;SDS011;63849;47.546;19.254;2023-06-05T14:06:50;3.28;;;2.53;;
51214;SDS011;63849;47.546;19.254;2023-06-05T14:09:24;3.78;;;2.97;;
51214;SDS011;63849;47.546;19.254;2023-06-05T14:11:54;3.55;;;2.60;;
51214;SDS011;63849;47.546;19.254;2023-06-05T14:14:22;4.75;;;3.00;;
51214;SDS011;63849;47.546;19.254;2023-06-05T14:16:50;4.40;;;3.20;;
51214;SDS011;63849;47.546;19.254;2023-06-05T14:19:20;3.95;;;2.78;;
51214;SDS011;63849;47.546;19.254;2023-06-05T14:21:45;2.85;;;2.50;;
51214;SDS011;63849;47.546;19.254;2023-06-05T14:24:14;3.22;;;2.70;;
51214;SDS011;63849;47.546;19.254;2023-06-05T14:26:40;5.43;;;3.10;;
51214;SDS011;63849;47.546;19.254;2023-06-05T14:29:06;4.72;;;3.03;;
51214;SDS011;63849;47.546;19.254;2023-06-05T14:31:32;4.43;;;2.92;;
51214;SDS011;63849;47.546;19.254;2023-06-05T14:34:05;4.30;;;3.15;;
51214;SDS011;63849;47.546;19.254;2023-06-05T14:36:31;3.42;;;2.67;;
51214;SDS011;63849;47.546;19.254;2023-06-05T14:38:56;5.32;;;2.90;;
51214;SDS011;63849;47.546;19.254;2023-06-05T14:41:23;6.15;;;2.83;;
51214;SDS011;63849;47.546;19.254;2023-06-05T14:43:49;4.60;;;2.80;;
51214;SDS011;63849;47.546;19.254;2023-06-05T14:46:14;3.55;;;2.58;;
51214;SDS011;63849;47.546;19.254;2023-06-05T14:48:42;4.57;;;3.00;;
51214;SDS011;63849;47.546;19.254;2023-06-05T14:51:13;3.70;;;2.78;;
51214;SDS011;63849;47.546;19.254;2023-06-05T14:53:41;6.05;;;3.15;;
51214;SDS011;63849;47.546;19.254;2023-06-05T14:56:10;3.45;;;3.13;;
51214;SDS011;63849;47.546;19.254;2023-06-05T14:58:35;5.15;;;3.10;;
51214;SDS011;63849;47.546;19.254;2023-06-05T15:01:03;4.88;;;3.03;;
51214;SDS011;63849;47.546;19.254;2023-06-05T15:03:28;5.15;;;3.20;;
51214;SDS011;63849;47.546;19.254;2023-06-05T15:05:54;5.43;;;3.65;;
51214;SDS011;63849;47.546;19.254;2023-06-05T15:08:22;5.82;;;3.10;;
51214;SDS011;63849;47.546;19.254;2023-06-05T15:10:51;4.68;;;3.58;;
51214;SDS011;63849;47.546;19.254;2023-06-05T15:13:19;5.15;;;2.78;;
51214;SDS011;63849;47.546;19.254;2023-06-05T15:15:51;4.65;;;3.15;;
51214;SDS011;63849;47.546;19.254;2023-06-05T15:18:17;4.90;;;3.28;;
51214;SDS011;63849;47.546;19.254;2023-06-05T15:20:43;6.10;;;3.65;;